Time;durP1;ratioP1;P1;durP2;ratioP2;P2;SDS_P1;SDS_P2;PMS_P1;PMS_P2;Temp;Humidity;BMP_temperature;BMP_pressure;BME280_temperature;BME280_humidity;BME280_pressure;Samples;Min_cycle;Max_cycle;Signal;HPM_P1;HPM_P2
2022/03/21 00:01:10;;;;;;;32.80;12.95;;;;;;;;;;5010161;28;100445;-71
2022/03/21 00:03:38;;;;;;;29.50;12.23;;;;;;;;;;5010879;28;100223;-71
2022/03/21 00:06:05;;;;;;;27.98;13.27;;;;;;;;;;5011412;28;100641;-71
2022/03/21 00:08:32;;;;;;;26.30;12.45;;;;;;;;;;5010486;28;101940;-71
2022/03/21 00:10:59;;;;;;;23.73;11.80;;;;;;;;;;5010829;28;100313;-71
2022/03/21 00:13:26;;;;;;;32.50;13.63;;;;;;;;;;4993018;28;101388;-74
2022/03/21 00:15:54;;;;;;;29.27;10.85;;;;;;;;;;5009767;28;100764;-71
2022/03/21 00:18:22;;;;;;;22.77;10.57;;;;;;;;;;5009925;28;100122;-71
2022/03/21 00:20:49;;;;;;;33.47;12.82;;;;;;;;;;5010360;28;100085;-71
2022/03/21 00:23:16;;;;;;;28.98;12.10;;;;;;;;;;4976725;28;100194;-71
2022/03/21 00:25:43;;;;;;;31.70;13.80;;;;;;;;;;5009954;28;100590;-72
2022/03/21 00:28:09;;;;;;;29.50;12.75;;;;;;;;;;5011392;28;102867;-71
2022/03/21 00:30:37;;;;;;;25.70;11.95;;;;;;;;;;5009870;28;100147;-71
2022/03/21 00:33:04;;;;;;;25.35;12.32;;;;;;;;;;4992814;28;100726;-71
2022/03/21 00:35:31;;;;;;;24.80;10.88;;;;;;;;;;4993377;28;100684;-71
2022/03/21 00:37:58;;;;;;;26.65;11.52;;;;;;;;;;5009969;28;100269;-71
2022/03/21 00:40:29;;;;;;;25.00;11.02;;;;;;;;;;5007341;28;100197;-71
2022/03/21 00:42:57;;;;;;;30.38;12.35;;;;;;;;;;4993001;28;100326;-71
2022/03/21 00:45:24;;;;;;;28.67;13.52;;;;;;;;;;4991945;28;100736;-71
2022/03/21 00:47:52;;;;;;;34.40;13.45;;;;;;;;;;5010543;28;100254;-71
2022/03/21 00:50:19;;;;;;;26.67;10.88;;;;;;;;;;4976890;28;100102;-71
2022/03/21 00:52:53;;;;;;;25.45;10.10;;;;;;;;;;4976174;28;101117;-71
2022/03/21 00:55:20;;;;;;;29.88;11.90;;;;;;;;;;5009059;28;100576;-71
2022/03/21 00:57:47;;;;;;;26.42;11.10;;;;;;;;;;4993361;28;99960;-71
2022/03/21 01:00:22;;;;;;;28.02;11.57;;;;;;;;;;5010294;28;100163;-72
2022/03/21 01:02:48;;;;;;;25.95;11.35;;;;;;;;;;5019949;28;102492;-71
2022/03/21 01:05:16;;;;;;;26.27;12.55;;;;;;;;;;5030584;28;100620;-72
2022/03/21 01:07:43;;;;;;;29.58;12.10;;;;;;;;;;5029728;27;99904;-71
2022/03/21 01:10:12;;;;;;;31.23;12.85;;;;;;;;;;5019631;28;100153;-71
2022/03/21 01:12:40;;;;;;;25.38;12.15;;;;;;;;;;5036185;28;100298;-71
2022/03/21 01:15:08;;;;;;;20.80;9.60;;;;;;;;;;5019221;28;100641;-71
2022/03/21 01:17:35;;;;;;;25.90;10.20;;;;;;;;;;5036112;28;100260;-71
2022/03/21 01:20:03;;;;;;;25.92;10.80;;;;;;;;;;5036563;27;100162;-71
2022/03/21 01:22:30;;;;;;;27.23;11.55;;;;;;;;;;5035707;28;100320;-71
2022/03/21 01:24:56;;;;;;;23.73;9.63;;;;;;;;;;5036063;28;103468;-72
2022/03/21 01:27:23;;;;;;;24.90;10.13;;;;;;;;;;5036076;28;100143;-71
2022/03/21 01:29:50;;;;;;;25.40;10.60;;;;;;;;;;5037265;27;99993;-71
2022/03/21 01:32:17;;;;;;;23.58;10.48;;;;;;;;;;5031083;27;101501;-71
2022/03/21 01:34:44;;;;;;;27.45;10.63;;;;;;;;;;5015383;28;100687;-71
2022/03/21 01:37:11;;;;;;;24.05;10.95;;;;;;;;;;5016922;28;100132;-71
2022/03/21 01:39:38;;;;;;;30.48;12.43;;;;;;;;;;5015908;28;100168;-70
2022/03/21 01:42:05;;;;;;;32.15;10.60;;;;;;;;;;5014589;28;100252;-70
2022/03/21 01:44:32;;;;;;;20.67;9.18;;;;;;;;;;5015694;28;100663;-71
2022/03/21 01:46:59;;;;;;;27.73;10.68;;;;;;;;;;5015350;28;100182;-71
2022/03/21 01:49:26;;;;;;;23.75;9.95;;;;;;;;;;5013998;28;100168;-71
2022/03/21 01:51:53;;;;;;;25.10;10.00;;;;;;;;;;4997796;28;103217;-71
2022/03/21 01:57:06;;;;;;;27.42;11.00;;;;;;;;;;5015766;28;100233;-71
2022/03/21 01:59:32;;;;;;;20.77;9.43;;;;;;;;;;4998027;28;100187;-74
2022/03/21 02:01:59;;;;;;;21.63;10.18;;;;;;;;;;4997746;28;100309;-71
2022/03/21 02:04:26;;;;;;;24.75;10.07;;;;;;;;;;5014269;28;100674;-71
2022/03/21 02:06:53;;;;;;;25.33;10.88;;;;;;;;;;5014741;28;100179;-71
2022/03/21 02:09:20;;;;;;;23.00;8.98;;;;;;;;;;4998727;28;100137;-71
2022/03/21 02:11:47;;;;;;;23.67;9.90;;;;;;;;;;5016024;28;100379;-71
2022/03/21 02:14:14;;;;;;;22.13;11.02;;;;;;;;;;5015408;28;100567;-71
2022/03/21 02:16:41;;;;;;;21.70;9.43;;;;;;;;;;4998109;28;100190;-71
2022/03/21 02:19:31;;;;;;;20.08;9.23;;;;;;;;;;4998145;28;100077;-71
2022/03/21 02:22:29;;;;;;;22.95;9.73;;;;;;;;;;5011177;28;100302;-71
2022/03/21 02:25:12;;;;;;;22.13;9.30;;;;;;;;;;5012787;28;100549;-72
2022/03/21 02:27:38;;;;;;;20.15;9.45;;;;;;;;;;5011060;28;100271;-72
2022/03/21 02:30:06;;;;;;;22.88;9.73;;;;;;;;;;5013320;28;102301;-71
2022/03/21 02:32:33;;;;;;;20.95;10.43;;;;;;;;;;4994912;28;100217;-71
2022/03/21 02:35:00;;;;;;;22.63;9.20;;;;;;;;;;5012208;28;100616;-71
2022/03/21 02:37:27;;;;;;;24.20;10.10;;;;;;;;;;5010209;28;100143;-71
2022/03/21 02:39:54;;;;;;;24.98;9.48;;;;;;;;;;5013098;28;100137;-72
2022/03/21 02:42:21;;;;;;;22.08;9.85;;;;;;;;;;5012379;28;100224;-72
2022/03/21 02:44:48;;;;;;;25.65;11.45;;;;;;;;;;5019507;28;100528;-71
2022/03/21 02:47:15;;;;;;;24.30;10.13;;;;;;;;;;5012080;28;100121;-71
2022/03/21 02:49:41;;;;;;;17.67;8.68;;;;;;;;;;4996140;28;100199;-71
2022/03/21 02:52:08;;;;;;;21.88;8.73;;;;;;;;;;4995111;28;100257;-71
2022/03/21 02:54:35;;;;;;;25.55;9.82;;;;;;;;;;4979354;28;102985;-71
2022/03/21 02:57:02;;;;;;;14.45;7.63;;;;;;;;;;4976692;28;103113;-71
2022/03/21 02:59:29;;;;;;;22.33;8.93;;;;;;;;;;5012444;28;100034;-72
2022/03/21 03:01:56;;;;;;;27.05;10.95;;;;;;;;;;4994797;28;100184;-72
2022/03/21 03:04:23;;;;;;;20.60;9.32;;;;;;;;;;5012135;28;100719;-71
2022/03/21 03:06:50;;;;;;;20.75;8.50;;;;;;;;;;5013442;28;100103;-71
2022/03/21 03:09:17;;;;;;;20.85;8.73;;;;;;;;;;5013469;28;100196;-71
2022/03/21 03:11:44;;;;;;;22.98;9.45;;;;;;;;;;4978135;28;100328;-71
2022/03/21 03:14:11;;;;;;;18.02;9.57;;;;;;;;;;4992108;28;100983;-71
2022/03/21 03:16:38;;;;;;;26.80;10.52;;;;;;;;;;5024708;28;104103;-71
2022/03/21 03:19:05;;;;;;;24.48;10.13;;;;;;;;;;5013152;28;100197;-71
2022/03/21 03:21:43;;;;;;;23.88;10.23;;;;;;;;;;5011453;28;102189;-71
2022/03/21 03:24:10;;;;;;;21.73;10.57;;;;;;;;;;4995121;28;102220;-71
2022/03/21 03:26:37;;;;;;;23.48;11.63;;;;;;;;;;5011783;28;100169;-71
2022/03/21 03:29:04;;;;;;;28.80;11.52;;;;;;;;;;5012144;28;100701;-71
2022/03/21 03:31:33;;;;;;;25.25;11.43;;;;;;;;;;5011859;28;101044;-71
2022/03/21 03:34:00;;;;;;;22.65;11.02;;;;;;;;;;5011800;28;100747;-71
2022/03/21 03:36:27;;;;;;;23.45;10.07;;;;;;;;;;5011607;28;100129;-72
2022/03/21 03:38:54;;;;;;;23.40;9.48;;;;;;;;;;4995783;28;100245;-71
2022/03/21 03:41:20;;;;;;;20.70;10.07;;;;;;;;;;4994615;28;101285;-72
2022/03/21 03:43:47;;;;;;;17.30;8.18;;;;;;;;;;5011407;28;100659;-72
2022/03/21 03:46:16;;;;;;;23.08;9.25;;;;;;;;;;4995339;28;99858;-71
2022/03/21 03:48:44;;;;;;;18.77;8.77;;;;;;;;;;4995248;28;100670;-72
2022/03/21 03:51:11;;;;;;;18.13;8.43;;;;;;;;;;4978696;28;100178;-72
2022/03/21 03:53:38;;;;;;;20.70;8.13;;;;;;;;;;4998669;28;100551;-71
2022/03/21 03:56:06;;;;;;;18.83;7.68;;;;;;;;;;5032069;28;99961;-71
2022/03/21 03:58:34;;;;;;;23.88;9.15;;;;;;;;;;5031904;28;103076;-71
2022/03/21 04:01:02;;;;;;;20.08;9.20;;;;;;;;;;5033365;27;100537;-71
2022/03/21 04:03:47;;;;;;;22.17;9.70;;;;;;;;;;5052623;27;100863;-71
2022/03/21 04:06:16;;;;;;;30.55;10.70;;;;;;;;;;5033821;27;100144;-71
2022/03/21 04:08:44;;;;;;;20.77;8.80;;;;;;;;;;5018554;27;100283;-71
2022/03/21 04:11:10;;;;;;;18.33;9.32;;;;;;;;;;5000838;27;102644;-71
2022/03/21 04:13:37;;;;;;;17.52;8.27;;;;;;;;;;5017761;27;100535;-71
2022/03/21 04:16:05;;;;;;;19.48;8.48;;;;;;;;;;5034907;27;100158;-72
2022/03/21 04:18:32;;;;;;;21.52;9.55;;;;;;;;;;5053282;27;99811;-72
2022/03/21 04:21:19;;;;;;;22.75;9.88;;;;;;;;;;5052493;27;100313;-71
2022/03/21 04:23:52;;;;;;;16.25;7.78;;;;;;;;;;5014444;27;100786;-72
2022/03/21 04:26:19;;;;;;;21.65;9.57;;;;;;;;;;5031921;27;100041;-73
2022/03/21 04:28:46;;;;;;;22.13;10.10;;;;;;;;;;5014571;27;100212;-72
2022/03/21 04:31:13;;;;;;;22.67;9.93;;;;;;;;;;5014245;27;103717;-72
2022/03/21 04:33:40;;;;;;;17.13;8.95;;;;;;;;;;5031937;27;100610;-71
2022/03/21 04:36:07;;;;;;;20.10;9.07;;;;;;;;;;5014405;27;100141;-72
2022/03/21 04:38:33;;;;;;;19.98;9.45;;;;;;;;;;4995740;27;100208;-71
2022/03/21 04:41:00;;;;;;;20.98;10.75;;;;;;;;;;5031944;27;100297;-71
2022/03/21 04:43:29;;;;;;;25.17;10.27;;;;;;;;;;4997888;27;100685;-71
2022/03/21 04:45:56;;;;;;;27.60;11.75;;;;;;;;;;4997212;27;100188;-72
2022/03/21 04:48:23;;;;;;;27.67;10.52;;;;;;;;;;5014569;27;100103;-73
2022/03/21 04:50:51;;;;;;;26.88;10.60;;;;;;;;;;5013722;27;100279;-71
2022/03/21 04:53:17;;;;;;;21.35;10.38;;;;;;;;;;5014187;27;100549;-72
2022/03/21 04:55:44;;;;;;;25.17;10.43;;;;;;;;;;5013929;27;99978;-71
2022/03/21 04:58:12;;;;;;;19.25;8.60;;;;;;;;;;5032200;27;100078;-71
2022/03/21 05:00:39;;;;;;;20.13;9.02;;;;;;;;;;4997278;27;102812;-71
2022/03/21 05:03:07;;;;;;;21.40;8.68;;;;;;;;;;5013380;27;101129;-72
2022/03/21 05:05:42;;;;;;;17.90;7.20;;;;;;;;;;4997863;27;100050;-71
2022/03/21 05:08:09;;;;;;;22.77;9.80;;;;;;;;;;4997605;27;100132;-71
2022/03/21 05:10:36;;;;;;;27.48;11.52;;;;;;;;;;5031526;27;100237;-71
2022/03/21 05:13:03;;;;;;;21.52;10.20;;;;;;;;;;4997033;27;100757;-71
2022/03/21 05:15:30;;;;;;;28.70;11.35;;;;;;;;;;5012568;27;102458;-71
2022/03/21 05:17:58;;;;;;;24.27;11.00;;;;;;;;;;5014168;27;100157;-71
2022/03/21 05:20:27;;;;;;;26.48;11.40;;;;;;;;;;5013703;27;100218;-72
2022/03/21 05:31:10;;;;;;;31.08;12.77;;;;;;;;;;5015879;27;101501;-72
2022/03/21 05:36:32;;;;;;;25.20;11.25;;;;;;;;;;5002577;27;100086;-72
2022/03/21 05:38:59;;;;;;;26.20;11.85;;;;;;;;;;5031644;27;99843;-72
2022/03/21 05:41:26;;;;;;;26.48;11.50;;;;;;;;;;5012774;27;100334;-72
2022/03/21 05:43:53;;;;;;;27.83;12.35;;;;;;;;;;4996858;27;103741;-72
2022/03/21 05:46:20;;;;;;;22.80;10.65;;;;;;;;;;4994496;27;100022;-72
2022/03/21 05:48:59;;;;;;;26.75;11.82;;;;;;;;;;4997104;27;102122;-71
2022/03/21 05:51:31;;;;;;;26.52;11.07;;;;;;;;;;5012797;27;100485;-72
2022/03/21 05:53:59;;;;;;;18.58;10.85;;;;;;;;;;4996868;27;100982;-72
2022/03/21 05:56:27;;;;;;;20.23;10.60;;;;;;;;;;5016604;27;100233;-72
2022/03/21 05:58:53;;;;;;;21.00;10.05;;;;;;;;;;5017690;27;100093;-72
2022/03/21 06:01:23;;;;;;;17.58;9.10;;;;;;;;;;5033450;27;100865;-72
2022/03/21 06:03:54;;;;;;;22.23;10.55;;;;;;;;;;4983271;27;100630;-72
2022/03/21 06:06:22;;;;;;;22.55;10.43;;;;;;;;;;4999897;27;100180;-70
2022/03/21 06:08:49;;;;;;;17.35;9.93;;;;;;;;;;4999296;27;99969;-71
2022/03/21 06:11:16;;;;;;;23.02;10.45;;;;;;;;;;4999857;27;100216;-71
2022/03/21 06:13:43;;;;;;;19.08;10.48;;;;;;;;;;5015960;27;101283;-70
2022/03/21 06:16:11;;;;;;;20.30;9.80;;;;;;;;;;5000437;27;100491;-71
2022/03/21 06:18:38;;;;;;;19.83;10.68;;;;;;;;;;5000099;27;100119;-70
2022/03/21 06:21:06;;;;;;;17.75;9.43;;;;;;;;;;5000018;27;100256;-71
2022/03/21 06:23:36;;;;;;;20.92;10.63;;;;;;;;;;5004041;27;101061;-70
2022/03/21 06:26:03;;;;;;;19.70;10.43;;;;;;;;;;5036990;27;99913;-71
2022/03/21 06:28:31;;;;;;;24.52;12.45;;;;;;;;;;5019966;27;100116;-71
2022/03/21 06:30:57;;;;;;;22.40;12.75;;;;;;;;;;5053805;27;100702;-71
2022/03/21 06:33:26;;;;;;;20.10;10.52;;;;;;;;;;5054035;27;100598;-70
2022/03/21 06:35:53;;;;;;;19.55;11.82;;;;;;;;;;5019884;27;100127;-70
2022/03/21 06:38:21;;;;;;;25.25;12.38;;;;;;;;;;5054366;27;100021;-70
2022/03/21 06:40:49;;;;;;;19.58;10.55;;;;;;;;;;5035039;27;101328;-70
2022/03/21 06:43:15;;;;;;;27.60;12.02;;;;;;;;;;5052437;27;100708;-71
2022/03/21 06:45:43;;;;;;;26.65;12.07;;;;;;;;;;5036141;27;100265;-71
2022/03/21 06:48:10;;;;;;;22.92;11.73;;;;;;;;;;5036421;27;99917;-71
2022/03/21 06:50:37;;;;;;;22.90;12.95;;;;;;;;;;5035314;27;100239;-71
2022/03/21 06:53:04;;;;;;;24.35;12.32;;;;;;;;;;5035011;27;101109;-71
2022/03/21 06:55:32;;;;;;;20.67;10.50;;;;;;;;;;5053646;27;100004;-71
2022/03/21 06:58:01;;;;;;;20.30;11.20;;;;;;;;;;5036837;27;100048;-71
2022/03/21 07:00:28;;;;;;;20.65;10.50;;;;;;;;;;5015946;27;100319;-71
2022/03/21 07:02:58;;;;;;;25.45;12.80;;;;;;;;;;5033135;27;100946;-71
2022/03/21 07:05:28;;;;;;;25.88;13.10;;;;;;;;;;5033068;27;100010;-71
2022/03/21 07:08:00;;;;;;;23.58;12.23;;;;;;;;;;5033609;27;100596;-71
2022/03/21 07:10:27;;;;;;;24.75;12.32;;;;;;;;;;4999103;27;100267;-72
2022/03/21 07:12:54;;;;;;;19.20;10.80;;;;;;;;;;5015427;27;100577;-71
2022/03/21 07:15:21;;;;;;;20.27;10.90;;;;;;;;;;5015672;27;99996;-72
2022/03/21 07:17:49;;;;;;;22.45;11.00;;;;;;;;;;5015804;27;100128;-72
2022/03/21 07:20:20;;;;;;;20.83;10.48;;;;;;;;;;4998587;27;100300;-71
2022/03/21 07:22:47;;;;;;;17.42;8.68;;;;;;;;;;4998392;27;101258;-71
2022/03/21 07:25:14;;;;;;;14.32;8.35;;;;;;;;;;4998709;27;100235;-71
2022/03/21 07:27:44;;;;;;;16.92;8.70;;;;;;;;;;5033299;27;100017;-71
2022/03/21 07:30:12;;;;;;;15.80;8.38;;;;;;;;;;5015119;27;102436;-71
2022/03/21 07:32:40;;;;;;;16.17;8.80;;;;;;;;;;5032636;27;100621;-71
2022/03/21 07:35:08;;;;;;;17.92;8.48;;;;;;;;;;4998552;27;100078;-72
2022/03/21 07:37:50;;;;;;;17.67;9.75;;;;;;;;;;4999323;27;100067;-72
2022/03/21 07:40:17;;;;;;;15.35;7.88;;;;;;;;;;5015272;27;100865;-71
2022/03/21 07:42:47;;;;;;;16.85;7.40;;;;;;;;;;5014155;27;102585;-71
2022/03/21 07:48:03;;;;;;;13.77;7.07;;;;;;;;;;4986995;27;100613;-72
2022/03/21 07:50:30;;;;;;;10.52;6.47;;;;;;;;;;5032603;27;100863;-72
2022/03/21 07:53:00;;;;;;;9.65;5.32;;;;;;;;;;5014858;27;101279;-72
2022/03/21 07:55:27;;;;;;;12.15;5.75;;;;;;;;;;5015256;27;100201;-71
2022/03/21 07:57:54;;;;;;;14.32;6.63;;;;;;;;;;5014683;27;100212;-71
2022/03/21 08:00:23;;;;;;;15.95;7.60;;;;;;;;;;5018566;27;100285;-71
2022/03/21 08:02:51;;;;;;;16.10;8.73;;;;;;;;;;5052661;27;100543;-71
2022/03/21 08:05:19;;;;;;;17.35;9.70;;;;;;;;;;5034650;27;100167;-71
2022/03/21 08:07:51;;;;;;;20.60;9.05;;;;;;;;;;5002973;27;100219;-72
2022/03/21 08:10:21;;;;;;;16.42;8.30;;;;;;;;;;5001603;27;100851;-72
2022/03/21 08:12:49;;;;;;;11.80;5.43;;;;;;;;;;5034593;27;100778;-72
2022/03/21 08:15:17;;;;;;;14.43;6.95;;;;;;;;;;5035045;27;101490;-72
2022/03/21 08:17:57;;;;;;;12.65;6.43;;;;;;;;;;5027444;27;100196;-71
2022/03/21 08:20:33;;;;;;;11.73;5.65;;;;;;;;;;5031912;27;100844;-72
2022/03/21 08:23:06;;;;;;;11.65;6.35;;;;;;;;;;5014058;27;100621;-72
2022/03/21 08:25:45;;;;;;;12.52;5.28;;;;;;;;;;4999033;27;100182;-72
2022/03/21 08:28:15;;;;;;;12.80;6.60;;;;;;;;;;5015382;27;100221;-71
2022/03/21 08:30:45;;;;;;;16.08;6.63;;;;;;;;;;5032161;27;100325;-71
2022/03/21 08:33:12;;;;;;;12.82;5.88;;;;;;;;;;5013724;27;100624;-71
2022/03/21 08:35:40;;;;;;;13.52;6.85;;;;;;;;;;5014182;27;100146;-72
2022/03/21 08:38:08;;;;;;;13.00;5.95;;;;;;;;;;5014858;28;100189;-72
2022/03/21 08:40:36;;;;;;;12.80;6.53;;;;;;;;;;5029330;27;100429;-72
2022/03/21 08:43:03;;;;;;;9.85;5.55;;;;;;;;;;5031859;27;100586;-72
2022/03/21 08:45:31;;;;;;;11.05;6.05;;;;;;;;;;4997998;28;100086;-71
2022/03/21 08:47:58;;;;;;;11.07;5.78;;;;;;;;;;4997940;27;100038;-71
2022/03/21 08:50:26;;;;;;;9.55;5.55;;;;;;;;;;5014052;27;100212;-71
2022/03/21 08:52:56;;;;;;;14.40;6.70;;;;;;;;;;5014782;28;100938;-71
2022/03/21 08:55:24;;;;;;;10.07;5.47;;;;;;;;;;4998186;27;100214;-71
2022/03/21 08:57:51;;;;;;;11.43;5.85;;;;;;;;;;5014259;27;99900;-71
2022/03/21 09:00:18;;;;;;;13.98;6.25;;;;;;;;;;4996852;28;100895;-72
2022/03/21 09:02:52;;;;;;;10.48;5.63;;;;;;;;;;5031232;27;100667;-72
2022/03/21 09:05:23;;;;;;;12.32;5.90;;;;;;;;;;5015275;27;100208;-72
2022/03/21 09:07:50;;;;;;;10.65;5.40;;;;;;;;;;4997821;28;100187;-71
2022/03/21 09:10:18;;;;;;;11.20;5.57;;;;;;;;;;5013710;27;100456;-72
2022/03/21 09:12:45;;;;;;;10.82;4.88;;;;;;;;;;5031530;27;100663;-72
2022/03/21 09:15:12;;;;;;;8.90;4.80;;;;;;;;;;5031684;27;100117;-71
2022/03/21 09:17:47;;;;;;;9.02;5.47;;;;;;;;;;4999728;27;100183;-72
2022/03/21 09:20:14;;;;;;;13.73;5.45;;;;;;;;;;5013141;27;100350;-72
2022/03/21 09:22:42;;;;;;;9.73;5.28;;;;;;;;;;5031119;27;100731;-71
2022/03/21 09:25:12;;;;;;;10.43;5.35;;;;;;;;;;4979300;27;100193;-72
2022/03/21 09:27:42;;;;;;;11.73;5.80;;;;;;;;;;4996440;27;101337;-71
2022/03/21 09:30:11;;;;;;;9.75;5.40;;;;;;;;;;5016447;27;100427;-72
2022/03/21 09:32:38;;;;;;;9.77;4.80;;;;;;;;;;5016840;27;100584;-72
2022/03/21 09:35:06;;;;;;;12.63;5.95;;;;;;;;;;5034872;27;100029;-71
2022/03/21 09:37:33;;;;;;;10.25;5.70;;;;;;;;;;5032610;27;100076;-72
2022/03/21 09:40:00;;;;;;;12.25;5.25;;;;;;;;;;5015610;27;100374;-72
2022/03/21 09:42:26;;;;;;;12.77;5.40;;;;;;;;;;5034204;27;100519;-72
2022/03/21 09:44:54;;;;;;;13.23;5.93;;;;;;;;;;5034018;27;100147;-73
2022/03/21 09:50:09;;;;;;;11.95;6.25;;;;;;;;;;5017837;27;100824;-74
2022/03/21 09:52:36;;;;;;;13.05;5.88;;;;;;;;;;5033277;27;100531;-71
2022/03/21 09:55:03;;;;;;;12.10;5.97;;;;;;;;;;5016799;27;100169;-71
2022/03/21 09:57:31;;;;;;;12.18;4.95;;;;;;;;;;5018301;27;100211;-72
2022/03/21 09:59:58;;;;;;;10.95;5.18;;;;;;;;;;5054005;27;100540;-71
2022/03/21 10:02:25;;;;;;;10.50;5.40;;;;;;;;;;5054025;27;101156;-71
2022/03/21 10:04:55;;;;;;;9.40;5.45;;;;;;;;;;5036131;27;100168;-71
2022/03/21 10:07:25;;;;;;;12.60;5.93;;;;;;;;;;5003665;27;100143;-71
2022/03/21 10:10:06;;;;;;;11.43;6.43;;;;;;;;;;5035935;27;100248;-71
2022/03/21 10:12:36;;;;;;;10.15;4.97;;;;;;;;;;5036363;27;100776;-71
2022/03/21 10:15:06;;;;;;;10.38;5.13;;;;;;;;;;5019230;27;101570;-71
2022/03/21 10:17:33;;;;;;;9.05;5.57;;;;;;;;;;5035753;27;100082;-71
2022/03/21 10:20:00;;;;;;;10.85;5.03;;;;;;;;;;5016036;27;100887;-71
2022/03/21 10:22:33;;;;;;;9.48;4.90;;;;;;;;;;4999542;27;100767;-71
2022/03/21 10:25:27;;;;;;;10.52;5.47;;;;;;;;;;5033963;27;100018;-72
2022/03/21 10:27:54;;;;;;;10.45;6.00;;;;;;;;;;5013140;27;100209;-71
2022/03/21 10:30:22;;;;;;;9.18;5.22;;;;;;;;;;5034149;27;100212;-72
2022/03/21 10:32:53;;;;;;;10.50;5.30;;;;;;;;;;4999159;27;100878;-73
2022/03/21 10:35:24;;;;;;;8.40;5.05;;;;;;;;;;5031172;27;100275;-72
2022/03/21 10:37:58;;;;;;;12.73;5.60;;;;;;;;;;4980732;27;100113;-71
2022/03/21 10:40:27;;;;;;;11.25;5.80;;;;;;;;;;5032458;27;100218;-71
2022/03/21 10:43:05;;;;;;;13.88;6.43;;;;;;;;;;5033534;27;101129;-71
2022/03/21 10:45:35;;;;;;;13.48;6.30;;;;;;;;;;5009643;27;100139;-72
2022/03/21 10:48:05;;;;;;;11.90;6.40;;;;;;;;;;5054432;27;100013;-72
2022/03/21 10:50:33;;;;;;;12.07;6.13;;;;;;;;;;5035931;27;100235;-73
2022/03/21 10:53:06;;;;;;;15.60;6.55;;;;;;;;;;5035707;27;101542;-71
2022/03/21 10:55:34;;;;;;;12.65;6.15;;;;;;;;;;5054170;27;100265;-71
2022/03/21 10:58:01;;;;;;;9.68;4.97;;;;;;;;;;5036857;27;100054;-72
2022/03/21 11:00:29;;;;;;;13.85;7.28;;;;;;;;;;5018476;27;101429;-71
2022/03/21 11:03:05;;;;;;;10.85;6.15;;;;;;;;;;5018673;27;100697;-72
2022/03/21 11:05:36;;;;;;;13.13;6.85;;;;;;;;;;5053529;27;100178;-71
2022/03/21 11:08:05;;;;;;;12.32;6.72;;;;;;;;;;5053607;27;100604;-72
2022/03/21 11:10:32;;;;;;;12.07;6.25;;;;;;;;;;5035558;27;100284;-73
2022/03/21 11:13:01;;;;;;;10.38;6.05;;;;;;;;;;5053088;27;100779;-72
2022/03/21 11:15:30;;;;;;;13.82;7.03;;;;;;;;;;5052782;27;99895;-71
2022/03/21 11:17:58;;;;;;;12.32;6.50;;;;;;;;;;5019509;27;100119;-71
2022/03/21 11:20:25;;;;;;;12.32;6.28;;;;;;;;;;5052922;27;101560;-71
2022/03/21 11:22:54;;;;;;;12.50;6.80;;;;;;;;;;5035445;27;101246;-73
2022/03/21 11:25:32;;;;;;;10.77;6.03;;;;;;;;;;5035816;27;100115;-71
2022/03/21 11:28:24;;;;;;;11.18;5.80;;;;;;;;;;5035185;27;100045;-72
2022/03/21 11:31:46;;;;;;;12.32;5.78;;;;;;;;;;5034209;27;101612;-72
2022/03/21 11:34:51;;;;;;;11.43;6.50;;;;;;;;;;4985183;27;100820;-71
2022/03/21 11:37:32;;;;;;;12.23;6.50;;;;;;;;;;5032447;27;100136;-72
2022/03/21 11:40:33;;;;;;;10.00;5.90;;;;;;;;;;5019520;27;99965;-70
2022/03/21 11:43:18;;;;;;;11.50;6.07;;;;;;;;;;5001677;27;100166;-71
2022/03/21 11:45:46;;;;;;;13.65;7.18;;;;;;;;;;5032488;27;100664;-71
2022/03/21 11:48:18;;;;;;;12.23;6.72;;;;;;;;;;5033003;27;100311;-71
2022/03/21 11:50:46;;;;;;;12.80;7.55;;;;;;;;;;5033175;27;101745;-71
2022/03/21 11:53:14;;;;;;;13.63;6.97;;;;;;;;;;4996480;27;102250;-72
2022/03/21 11:56:01;;;;;;;14.75;7.35;;;;;;;;;;4981148;27;100701;-71
2022/03/21 11:58:37;;;;;;;13.23;6.50;;;;;;;;;;5018194;27;100047;-72
2022/03/21 12:01:16;;;;;;;12.57;6.45;;;;;;;;;;5032484;27;100214;-72
2022/03/21 12:03:44;;;;;;;13.30;7.18;;;;;;;;;;5011749;27;100437;-71
2022/03/21 12:06:33;;;;;;;13.07;6.97;;;;;;;;;;5014374;27;100726;-71
2022/03/21 12:09:09;;;;;;;12.48;7.20;;;;;;;;;;5014516;27;100254;-71
2022/03/21 12:11:39;;;;;;;12.95;7.30;;;;;;;;;;5014176;27;100257;-71
2022/03/21 12:14:40;;;;;;;11.63;6.85;;;;;;;;;;5014095;27;100828;-73
2022/03/21 12:17:10;;;;;;;13.50;6.85;;;;;;;;;;5015427;27;101751;-72
2022/03/21 12:20:01;;;;;;;13.93;7.57;;;;;;;;;;5032555;27;100167;-70
2022/03/21 12:22:48;;;;;;;11.82;6.93;;;;;;;;;;5032245;27;100184;-71
2022/03/21 12:25:27;;;;;;;12.57;6.45;;;;;;;;;;4979325;27;101259;-71
2022/03/21 12:27:58;;;;;;;15.00;6.97;;;;;;;;;;5013969;28;100226;-70
2022/03/21 12:30:29;;;;;;;14.02;7.78;;;;;;;;;;5014140;27;100218;-71
2022/03/21 12:33:09;;;;;;;12.40;6.70;;;;;;;;;;5032654;27;99986;-71
2022/03/21 12:35:53;;;;;;;12.13;6.63;;;;;;;;;;5031817;27;100198;-71
2022/03/21 12:38:33;;;;;;;11.35;6.43;;;;;;;;;;5032238;27;100495;-71
2022/03/21 12:41:02;;;;;;;14.75;7.60;;;;;;;;;;4999369;27;100185;-71
2022/03/21 12:43:41;;;;;;;13.80;7.78;;;;;;;;;;4998574;27;100097;-70
2022/03/21 12:46:12;;;;;;;14.27;7.63;;;;;;;;;;5032040;27;100769;-71
2022/03/21 12:48:42;;;;;;;13.88;7.72;;;;;;;;;;4998186;27;100785;-72
2022/03/21 12:51:15;;;;;;;14.88;8.52;;;;;;;;;;5034584;27;100075;-71
2022/03/21 12:54:05;;;;;;;15.02;7.75;;;;;;;;;;5014794;27;100037;-72
2022/03/21 12:56:32;;;;;;;12.80;7.30;;;;;;;;;;5013657;28;100386;-72
2022/03/21 12:59:03;;;;;;;13.38;7.38;;;;;;;;;;4997426;27;100662;-72
2022/03/21 13:01:31;;;;;;;13.70;7.53;;;;;;;;;;5013767;27;100489;-71
2022/03/21 13:12:36;;;;;;;17.10;8.80;;;;;;;;;;5021378;27;100580;-71
2022/03/21 13:15:05;;;;;;;16.13;8.52;;;;;;;;;;5017493;27;99985;-72
2022/03/21 13:17:51;;;;;;;19.75;8.98;;;;;;;;;;5051057;27;101382;-71
2022/03/21 13:20:25;;;;;;;15.15;8.75;;;;;;;;;;5017103;27;100581;-72
2022/03/21 13:22:53;;;;;;;13.27;8.52;;;;;;;;;;5014698;27;100243;-72
2022/03/21 13:25:29;;;;;;;17.48;10.00;;;;;;;;;;4996460;27;100090;-72
2022/03/21 13:28:12;;;;;;;21.20;9.38;;;;;;;;;;4979339;27;103052;-72
2022/03/21 13:31:01;;;;;;;16.70;9.10;;;;;;;;;;5031163;27;101175;-72
2022/03/21 13:33:30;;;;;;;16.35;8.88;;;;;;;;;;4997225;27;100098;-72
2022/03/21 13:35:59;;;;;;;18.92;11.07;;;;;;;;;;4981554;27;100048;-72
2022/03/21 13:38:27;;;;;;;17.98;9.40;;;;;;;;;;5031152;27;100268;-72
2022/03/21 13:40:55;;;;;;;15.75;9.82;;;;;;;;;;5009315;27;104642;-72
2022/03/21 13:43:30;;;;;;;19.27;10.00;;;;;;;;;;4996270;27;100184;-71
2022/03/21 13:46:03;;;;;;;17.65;9.20;;;;;;;;;;5013613;27;100063;-71
2022/03/21 13:48:43;;;;;;;16.00;8.50;;;;;;;;;;4998561;27;100316;-72
2022/03/21 13:51:30;;;;;;;18.02;9.50;;;;;;;;;;5030940;27;100559;-72
2022/03/21 13:54:14;;;;;;;20.75;9.85;;;;;;;;;;5030906;27;100011;-72
2022/03/21 13:56:43;;;;;;;19.58;10.63;;;;;;;;;;5031096;27;100102;-71
2022/03/21 13:59:16;;;;;;;15.63;9.45;;;;;;;;;;4980866;27;103463;-72
2022/03/21 14:01:46;;;;;;;18.10;9.20;;;;;;;;;;5008888;28;100657;-71
2022/03/21 14:04:37;;;;;;;17.80;9.68;;;;;;;;;;5010640;28;100050;-72
2022/03/21 14:07:05;;;;;;;19.90;9.93;;;;;;;;;;4998160;28;100300;-71
2022/03/21 14:09:35;;;;;;;16.55;9.60;;;;;;;;;;5005384;28;100267;-71
2022/03/21 14:12:07;;;;;;;26.50;10.52;;;;;;;;;;5010120;28;101191;-71
2022/03/21 14:14:41;;;;;;;19.85;10.15;;;;;;;;;;4993663;28;100161;-71
2022/03/21 14:17:07;;;;;;;20.27;10.65;;;;;;;;;;5013071;28;100563;-71
2022/03/21 14:19:35;;;;;;;19.23;11.15;;;;;;;;;;5012463;28;100464;-72
2022/03/21 14:22:02;;;;;;;18.55;10.48;;;;;;;;;;5011833;28;101337;-72
2022/03/21 14:24:29;;;;;;;19.95;10.35;;;;;;;;;;5014013;28;100033;-71
2022/03/21 14:26:58;;;;;;;18.73;10.38;;;;;;;;;;4996868;28;100083;-72
2022/03/21 14:29:29;;;;;;;19.63;10.43;;;;;;;;;;5012465;28;100259;-71
2022/03/21 14:31:58;;;;;;;18.10;9.57;;;;;;;;;;4995898;28;100819;-72
2022/03/21 14:34:25;;;;;;;20.85;10.27;;;;;;;;;;5011789;28;100111;-71
2022/03/21 14:36:54;;;;;;;22.35;11.13;;;;;;;;;;5013378;28;99881;-72
2022/03/21 14:39:32;;;;;;;20.15;10.48;;;;;;;;;;5012402;28;100404;-71
2022/03/21 14:41:59;;;;;;;19.30;9.38;;;;;;;;;;5013623;28;100614;-71
2022/03/21 14:44:26;;;;;;;18.05;9.57;;;;;;;;;;4979784;28;100061;-71
2022/03/21 14:46:55;;;;;;;16.58;9.82;;;;;;;;;;4996164;28;100094;-71
2022/03/21 14:49:22;;;;;;;20.08;11.15;;;;;;;;;;5012067;28;103101;-71
2022/03/21 14:51:49;;;;;;;19.23;11.10;;;;;;;;;;5012535;28;100654;-71
2022/03/21 14:54:17;;;;;;;19.60;10.05;;;;;;;;;;5012770;28;99833;-71
2022/03/21 14:56:47;;;;;;;18.27;10.00;;;;;;;;;;5012630;28;100122;-71
2022/03/21 14:59:14;;;;;;;18.90;10.57;;;;;;;;;;5012299;28;101083;-71